sensor_id;sensor_type;location;lat;lon;timestamp;P1;durP1;ratioP1;P2;durP2;ratioP2
63975;SDS011;50167;47.958;21.780;2022-12-10T00:01:12;47.00;;;29.93;;
63975;SDS011;50167;47.958;21.780;2022-12-10T00:03:41;41.42;;;29.67;;
63975;SDS011;50167;47.958;21.780;2022-12-10T00:06:09;46.47;;;30.20;;
63975;SDS011;50167;47.958;21.780;2022-12-10T00:08:38;54.10;;;30.72;;
63975;SDS011;50167;47.958;21.780;2022-12-10T00:11:05;41.73;;;24.80;;
63975;SDS011;50167;47.958;21.780;2022-12-10T00:13:34;41.37;;;25.97;;
63975;SDS011;50167;47.958;21.780;2022-12-10T00:16:01;39.40;;;24.53;;
63975;SDS011;50167;47.958;21.780;2022-12-10T00:18:29;41.63;;;27.43;;
63975;SDS011;50167;47.958;21.780;2022-12-10T00:20:55;42.73;;;26.40;;
63975;SDS011;50167;47.958;21.780;2022-12-10T00:23:22;46.60;;;23.57;;
63975;SDS011;50167;47.958;21.780;2022-12-10T00:25:48;39.93;;;20.47;;
63975;SDS011;50167;47.958;21.780;2022-12-10T00:28:14;37.33;;;15.80;;
63975;SDS011;50167;47.958;21.780;2022-12-10T00:30:41;34.30;;;11.87;;
63975;SDS011;50167;47.958;21.780;2022-12-10T00:33:07;29.63;;;11.20;;
63975;SDS011;50167;47.958;21.780;2022-12-10T00:35:35;31.40;;;11.00;;
63975;SDS011;50167;47.958;21.780;2022-12-10T00:38:02;24.73;;;8.27;;
63975;SDS011;50167;47.958;21.780;2022-12-10T00:40:28;17.40;;;7.30;;
63975;SDS011;50167;47.958;21.780;2022-12-10T00:42:54;28.90;;;10.07;;
63975;SDS011;50167;47.958;21.780;2022-12-10T00:45:20;27.57;;;9.30;;
63975;SDS011;50167;47.958;21.780;2022-12-10T00:47:46;22.37;;;7.23;;
63975;SDS011;50167;47.958;21.780;2022-12-10T00:50:12;20.10;;;7.57;;
63975;SDS011;50167;47.958;21.780;2022-12-10T00:52:38;27.00;;;8.37;;
63975;SDS011;50167;47.958;21.780;2022-12-10T00:55:04;26.80;;;6.03;;
63975;SDS011;50167;47.958;21.780;2022-12-10T00:57:31;24.93;;;7.33;;
63975;SDS011;50167;47.958;21.780;2022-12-10T00:59:57;42.63;;;10.77;;
63975;SDS011;50167;47.958;21.780;2022-12-10T01:02:23;38.80;;;10.00;;
63975;SDS011;50167;47.958;21.780;2022-12-10T01:04:53;29.10;;;8.13;;
63975;SDS011;50167;47.958;21.780;2022-12-10T01:07:19;17.80;;;6.47;;
63975;SDS011;50167;47.958;21.780;2022-12-10T01:09:45;31.87;;;7.17;;
63975;SDS011;50167;47.958;21.780;2022-12-10T01:12:11;30.93;;;9.43;;
63975;SDS011;50167;47.958;21.780;2022-12-10T01:14:37;21.27;;;7.43;;
63975;SDS011;50167;47.958;21.780;2022-12-10T01:17:04;30.40;;;10.20;;
63975;SDS011;50167;47.958;21.780;2022-12-10T01:19:31;16.30;;;6.20;;
63975;SDS011;50167;47.958;21.780;2022-12-10T01:21:58;24.07;;;6.97;;
63975;SDS011;50167;47.958;21.780;2022-12-10T01:24:25;19.67;;;6.13;;
63975;SDS011;50167;47.958;21.780;2022-12-10T01:26:53;22.27;;;8.60;;
63975;SDS011;50167;47.958;21.780;2022-12-10T01:29:22;24.50;;;6.70;;
63975;SDS011;50167;47.958;21.780;2022-12-10T01:31:52;25.77;;;7.47;;
63975;SDS011;50167;47.958;21.780;2022-12-10T01:34:20;17.90;;;7.07;;
63975;SDS011;50167;47.958;21.780;2022-12-10T01:36:49;33.60;;;8.60;;
63975;SDS011;50167;47.958;21.780;2022-12-10T01:39:17;25.08;;;8.38;;
63975;SDS011;50167;47.958;21.780;2022-12-10T01:41:47;20.03;;;6.73;;
63975;SDS011;50167;47.958;21.780;2022-12-10T01:46:55;19.10;;;7.13;;
63975;SDS011;50167;47.958;21.780;2022-12-10T01:49:33;19.83;;;6.57;;
63975;SDS011;50167;47.958;21.780;2022-12-10T01:52:03;19.33;;;7.17;;
63975;SDS011;50167;47.958;21.780;2022-12-10T01:54:33;15.85;;;6.47;;
63975;SDS011;50167;47.958;21.780;2022-12-10T01:59:39;20.17;;;8.33;;
63975;SDS011;50167;47.958;21.780;2022-12-10T02:10:46;16.20;;;6.20;;
63975;SDS011;50167;47.958;21.780;2022-12-10T02:13:44;20.77;;;7.33;;
63975;SDS011;50167;47.958;21.780;2022-12-10T02:16:18;19.57;;;7.03;;
63975;SDS011;50167;47.958;21.780;2022-12-10T02:18:55;19.60;;;7.80;;
63975;SDS011;50167;47.958;21.780;2022-12-10T02:21:34;18.80;;;7.60;;
63975;SDS011;50167;47.958;21.780;2022-12-10T02:24:09;20.67;;;6.50;;
63975;SDS011;50167;47.958;21.780;2022-12-10T02:29:27;26.83;;;7.67;;
63975;SDS011;50167;47.958;21.780;2022-12-10T02:31:57;22.63;;;7.30;;
63975;SDS011;50167;47.958;21.780;2022-12-10T02:34:40;14.57;;;6.70;;
63975;SDS011;50167;47.958;21.780;2022-12-10T02:37:07;14.43;;;5.93;;
63975;SDS011;50167;47.958;21.780;2022-12-10T02:39:42;17.17;;;7.63;;
63975;SDS011;50167;47.958;21.780;2022-12-10T02:42:11;22.55;;;6.50;;
63975;SDS011;50167;47.958;21.780;2022-12-10T02:44:40;17.67;;;6.93;;
63975;SDS011;50167;47.958;21.780;2022-12-10T02:47:09;20.23;;;7.30;;
63975;SDS011;50167;47.958;21.780;2022-12-10T02:49:37;21.53;;;7.43;;
63975;SDS011;50167;47.958;21.780;2022-12-10T02:52:09;17.10;;;7.23;;
63975;SDS011;50167;47.958;21.780;2022-12-10T02:54:40;18.80;;;7.47;;
63975;SDS011;50167;47.958;21.780;2022-12-10T03:02:55;15.80;;;6.20;;
63975;SDS011;50167;47.958;21.780;2022-12-10T03:05:53;32.30;;;7.53;;
63975;SDS011;50167;47.958;21.780;2022-12-10T03:11:17;13.37;;;6.07;;
63975;SDS011;50167;47.958;21.780;2022-12-10T03:16:24;15.83;;;7.00;;
63975;SDS011;50167;47.958;21.780;2022-12-10T03:18:56;22.00;;;7.50;;
63975;SDS011;50167;47.958;21.780;2022-12-10T03:21:27;28.50;;;8.43;;
63975;SDS011;50167;47.958;21.780;2022-12-10T03:23:55;20.23;;;5.73;;
63975;SDS011;50167;47.958;21.780;2022-12-10T03:26:21;22.37;;;6.63;;
63975;SDS011;50167;47.958;21.780;2022-12-10T03:28:50;22.20;;;5.40;;
63975;SDS011;50167;47.958;21.780;2022-12-10T03:31:20;17.30;;;6.27;;
63975;SDS011;50167;47.958;21.780;2022-12-10T03:33:47;18.80;;;7.17;;
63975;SDS011;50167;47.958;21.780;2022-12-10T03:36:15;15.60;;;6.43;;
63975;SDS011;50167;47.958;21.780;2022-12-10T03:38:43;17.83;;;7.33;;
63975;SDS011;50167;47.958;21.780;2022-12-10T03:41:10;12.27;;;5.23;;
63975;SDS011;50167;47.958;21.780;2022-12-10T03:43:43;20.50;;;6.87;;
63975;SDS011;50167;47.958;21.780;2022-12-10T03:46:25;14.60;;;7.23;;
63975;SDS011;50167;47.958;21.780;2022-12-10T03:48:55;16.57;;;6.03;;
63975;SDS011;50167;47.958;21.780;2022-12-10T03:51:22;18.73;;;6.43;;
63975;SDS011;50167;47.958;21.780;2022-12-10T03:53:48;16.03;;;6.00;;
63975;SDS011;50167;47.958;21.780;2022-12-10T03:56:15;22.87;;;5.97;;
63975;SDS011;50167;47.958;21.780;2022-12-10T03:58:43;20.60;;;9.07;;
63975;SDS011;50167;47.958;21.780;2022-12-10T04:01:09;15.87;;;6.77;;
63975;SDS011;50167;47.958;21.780;2022-12-10T04:03:37;23.20;;;8.13;;
63975;SDS011;50167;47.958;21.780;2022-12-10T04:06:06;17.07;;;5.90;;
63975;SDS011;50167;47.958;21.780;2022-12-10T04:08:37;15.27;;;6.67;;
63975;SDS011;50167;47.958;21.780;2022-12-10T04:11:04;13.67;;;6.37;;
63975;SDS011;50167;47.958;21.780;2022-12-10T04:13:36;16.40;;;8.20;;
63975;SDS011;50167;47.958;21.780;2022-12-10T04:16:19;18.53;;;7.70;;
63975;SDS011;50167;47.958;21.780;2022-12-10T04:18:53;15.00;;;6.27;;
63975;SDS011;50167;47.958;21.780;2022-12-10T04:21:26;15.67;;;6.53;;
63975;SDS011;50167;47.958;21.780;2022-12-10T04:24:13;15.43;;;6.53;;
63975;SDS011;50167;47.958;21.780;2022-12-10T04:27:00;17.50;;;6.40;;
63975;SDS011;50167;47.958;21.780;2022-12-10T04:29:33;15.53;;;6.60;;
63975;SDS011;50167;47.958;21.780;2022-12-10T04:32:00;13.90;;;7.03;;
63975;SDS011;50167;47.958;21.780;2022-12-10T04:34:26;17.03;;;6.83;;
63975;SDS011;50167;47.958;21.780;2022-12-10T04:36:52;13.27;;;6.17;;
63975;SDS011;50167;47.958;21.780;2022-12-10T04:39:19;12.00;;;7.17;;
63975;SDS011;50167;47.958;21.780;2022-12-10T04:41:46;16.33;;;7.67;;
63975;SDS011;50167;47.958;21.780;2022-12-10T04:44:15;20.77;;;9.87;;
63975;SDS011;50167;47.958;21.780;2022-12-10T04:46:42;17.30;;;9.53;;
63975;SDS011;50167;47.958;21.780;2022-12-10T04:49:08;17.43;;;7.27;;
63975;SDS011;50167;47.958;21.780;2022-12-10T04:51:34;22.03;;;9.53;;
63975;SDS011;50167;47.958;21.780;2022-12-10T04:54:01;13.27;;;8.40;;
63975;SDS011;50167;47.958;21.780;2022-12-10T04:56:28;18.53;;;8.53;;
63975;SDS011;50167;47.958;21.780;2022-12-10T04:58:56;18.13;;;8.47;;
63975;SDS011;50167;47.958;21.780;2022-12-10T05:01:23;22.90;;;8.43;;
63975;SDS011;50167;47.958;21.780;2022-12-10T05:03:50;14.27;;;7.50;;
63975;SDS011;50167;47.958;21.780;2022-12-10T05:06:17;20.23;;;7.97;;
63975;SDS011;50167;47.958;21.780;2022-12-10T05:08:45;25.47;;;10.97;;
63975;SDS011;50167;47.958;21.780;2022-12-10T05:11:16;37.87;;;13.37;;
63975;SDS011;50167;47.958;21.780;2022-12-10T05:13:45;55.80;;;16.70;;
63975;SDS011;50167;47.958;21.780;2022-12-10T05:16:13;30.63;;;12.10;;
63975;SDS011;50167;47.958;21.780;2022-12-10T05:18:42;37.05;;;17.20;;
63975;SDS011;50167;47.958;21.780;2022-12-10T05:21:13;35.20;;;14.63;;
63975;SDS011;50167;47.958;21.780;2022-12-10T05:23:39;27.48;;;11.73;;
63975;SDS011;50167;47.958;21.780;2022-12-10T05:26:10;20.43;;;9.05;;
63975;SDS011;50167;47.958;21.780;2022-12-10T05:28:44;18.95;;;9.70;;
63975;SDS011;50167;47.958;21.780;2022-12-10T05:33:44;15.23;;;9.63;;
63975;SDS011;50167;47.958;21.780;2022-12-10T05:36:12;23.97;;;10.93;;
63975;SDS011;50167;47.958;21.780;2022-12-10T05:38:41;23.27;;;10.30;;
63975;SDS011;50167;47.958;21.780;2022-12-10T05:41:14;22.17;;;10.00;;
63975;SDS011;50167;47.958;21.780;2022-12-10T05:43:44;23.97;;;11.13;;
63975;SDS011;50167;47.958;21.780;2022-12-10T05:46:11;15.57;;;9.23;;
63975;SDS011;50167;47.958;21.780;2022-12-10T05:48:41;24.65;;;9.98;;
63975;SDS011;50167;47.958;21.780;2022-12-10T05:51:08;15.93;;;9.10;;
63975;SDS011;50167;47.958;21.780;2022-12-10T05:53:37;24.52;;;12.13;;
63975;SDS011;50167;47.958;21.780;2022-12-10T05:56:10;22.53;;;10.70;;
63975;SDS011;50167;47.958;21.780;2022-12-10T05:58:36;18.97;;;11.27;;
63975;SDS011;50167;47.958;21.780;2022-12-10T06:01:07;26.80;;;10.70;;
63975;SDS011;50167;47.958;21.780;2022-12-10T06:03:41;19.47;;;10.93;;
63975;SDS011;50167;47.958;21.780;2022-12-10T06:06:08;20.73;;;10.50;;
63975;SDS011;50167;47.958;21.780;2022-12-10T06:08:35;23.93;;;9.70;;
63975;SDS011;50167;47.958;21.780;2022-12-10T06:11:03;19.33;;;9.93;;
63975;SDS011;50167;47.958;21.780;2022-12-10T06:13:31;18.37;;;9.23;;
63975;SDS011;50167;47.958;21.780;2022-12-10T06:15:58;17.87;;;9.20;;
63975;SDS011;50167;47.958;21.780;2022-12-10T06:18:24;19.97;;;10.30;;
63975;SDS011;50167;47.958;21.780;2022-12-10T06:20:50;22.07;;;10.03;;
63975;SDS011;50167;47.958;21.780;2022-12-10T06:23:17;18.77;;;8.77;;
63975;SDS011;50167;47.958;21.780;2022-12-10T06:25:43;27.70;;;11.03;;
63975;SDS011;50167;47.958;21.780;2022-12-10T06:28:09;19.37;;;9.30;;
63975;SDS011;50167;47.958;21.780;2022-12-10T06:30:36;21.57;;;9.87;;
63975;SDS011;50167;47.958;21.780;2022-12-10T06:33:02;15.77;;;10.47;;
63975;SDS011;50167;47.958;21.780;2022-12-10T06:35:28;17.40;;;8.83;;
63975;SDS011;50167;47.958;21.780;2022-12-10T06:37:54;20.00;;;9.53;;
63975;SDS011;50167;47.958;21.780;2022-12-10T06:40:20;14.53;;;7.80;;
63975;SDS011;50167;47.958;21.780;2022-12-10T06:42:46;21.00;;;9.77;;
63975;SDS011;50167;47.958;21.780;2022-12-10T06:45:12;15.77;;;8.10;;
63975;SDS011;50167;47.958;21.780;2022-12-10T06:47:38;14.80;;;10.17;;
63975;SDS011;50167;47.958;21.780;2022-12-10T06:50:04;15.50;;;10.07;;
63975;SDS011;50167;47.958;21.780;2022-12-10T06:52:31;23.53;;;14.83;;
63975;SDS011;50167;47.958;21.780;2022-12-10T06:54:57;30.73;;;17.17;;
63975;SDS011;50167;47.958;21.780;2022-12-10T06:57:23;27.57;;;15.63;;
63975;SDS011;50167;47.958;21.780;2022-12-10T06:59:49;40.37;;;16.83;;
63975;SDS011;50167;47.958;21.780;2022-12-10T07:02:15;38.93;;;18.80;;
63975;SDS011;50167;47.958;21.780;2022-12-10T07:04:41;45.23;;;20.10;;
63975;SDS011;50167;47.958;21.780;2022-12-10T07:07:08;44.97;;;19.43;;
63975;SDS011;50167;47.958;21.780;2022-12-10T07:09:34;31.37;;;17.87;;
63975;SDS011;50167;47.958;21.780;2022-12-10T07:12:00;24.87;;;14.97;;
63975;SDS011;50167;47.958;21.780;2022-12-10T07:14:26;26.47;;;14.57;;
63975;SDS011;50167;47.958;21.780;2022-12-10T07:16:52;26.37;;;15.27;;
63975;SDS011;50167;47.958;21.780;2022-12-10T07:19:18;23.90;;;15.00;;
63975;SDS011;50167;47.958;21.780;2022-12-10T07:21:44;25.33;;;16.07;;
63975;SDS011;50167;47.958;21.780;2022-12-10T07:24:12;25.73;;;17.50;;
63975;SDS011;50167;47.958;21.780;2022-12-10T07:26:42;29.73;;;18.07;;
63975;SDS011;50167;47.958;21.780;2022-12-10T07:29:14;29.47;;;18.23;;
63975;SDS011;50167;47.958;21.780;2022-12-10T07:31:45;23.77;;;15.93;;
63975;SDS011;50167;47.958;21.780;2022-12-10T07:34:12;25.00;;;16.50;;
63975;SDS011;50167;47.958;21.780;2022-12-10T07:36:38;42.10;;;19.87;;
63975;SDS011;50167;47.958;21.780;2022-12-10T07:39:05;30.27;;;18.87;;
63975;SDS011;50167;47.958;21.780;2022-12-10T07:41:34;31.83;;;19.07;;
63975;SDS011;50167;47.958;21.780;2022-12-10T07:44:01;55.40;;;20.47;;
63975;SDS011;50167;47.958;21.780;2022-12-10T07:46:31;30.33;;;19.10;;
63975;SDS011;50167;47.958;21.780;2022-12-10T07:49:01;29.47;;;19.77;;
63975;SDS011;50167;47.958;21.780;2022-12-10T07:51:28;32.08;;;16.87;;
63975;SDS011;50167;47.958;21.780;2022-12-10T07:53:55;27.73;;;18.53;;
63975;SDS011;50167;47.958;21.780;2022-12-10T07:56:22;25.47;;;17.93;;
63975;SDS011;50167;47.958;21.780;2022-12-10T07:58:50;26.80;;;16.67;;
63975;SDS011;50167;47.958;21.780;2022-12-10T08:01:20;37.40;;;19.53;;
63975;SDS011;50167;47.958;21.780;2022-12-10T08:03:49;37.93;;;18.95;;
63975;SDS011;50167;47.958;21.780;2022-12-10T08:06:17;37.77;;;18.50;;
63975;SDS011;50167;47.958;21.780;2022-12-10T08:08:45;37.40;;;22.83;;
63975;SDS011;50167;47.958;21.780;2022-12-10T08:11:12;39.50;;;20.53;;
63975;SDS011;50167;47.958;21.780;2022-12-10T08:13:40;38.67;;;17.43;;
63975;SDS011;50167;47.958;21.780;2022-12-10T08:16:10;31.53;;;17.50;;
63975;SDS011;50167;47.958;21.780;2022-12-10T08:18:41;36.73;;;19.90;;
63975;SDS011;50167;47.958;21.780;2022-12-10T08:21:08;37.90;;;19.47;;
63975;SDS011;50167;47.958;21.780;2022-12-10T08:23:44;36.20;;;19.53;;
63975;SDS011;50167;47.958;21.780;2022-12-10T08:26:12;36.67;;;17.43;;
63975;SDS011;50167;47.958;21.780;2022-12-10T08:28:42;41.37;;;19.48;;
63975;SDS011;50167;47.958;21.780;2022-12-10T08:31:09;44.37;;;20.10;;
63975;SDS011;50167;47.958;21.780;2022-12-10T08:33:37;44.57;;;21.43;;
63975;SDS011;50167;47.958;21.780;2022-12-10T08:36:04;38.43;;;19.23;;
63975;SDS011;50167;47.958;21.780;2022-12-10T08:38:34;35.03;;;18.30;;
63975;SDS011;50167;47.958;21.780;2022-12-10T08:41:14;38.27;;;19.70;;
63975;SDS011;50167;47.958;21.780;2022-12-10T08:43:47;34.43;;;18.90;;
63975;SDS011;50167;47.958;21.780;2022-12-10T08:46:15;39.57;;;19.27;;
63975;SDS011;50167;47.958;21.780;2022-12-10T08:48:42;39.07;;;19.10;;
63975;SDS011;50167;47.958;21.780;2022-12-10T08:51:09;34.20;;;17.13;;
63975;SDS011;50167;47.958;21.780;2022-12-10T08:53:39;42.13;;;20.10;;
63975;SDS011;50167;47.958;21.780;2022-12-10T08:56:06;41.23;;;19.13;;
63975;SDS011;50167;47.958;21.780;2022-12-10T08:58:32;38.67;;;23.77;;
63975;SDS011;50167;47.958;21.780;2022-12-10T09:00:59;38.03;;;20.00;;
63975;SDS011;50167;47.958;21.780;2022-12-10T09:03:27;32.47;;;18.33;;
63975;SDS011;50167;47.958;21.780;2022-12-10T09:05:53;36.53;;;18.83;;
63975;SDS011;50167;47.958;21.780;2022-12-10T09:08:19;29.77;;;19.47;;
63975;SDS011;50167;47.958;21.780;2022-12-10T09:10:45;43.10;;;24.67;;
63975;SDS011;50167;47.958;21.780;2022-12-10T09:13:11;36.80;;;21.60;;
63975;SDS011;50167;47.958;21.780;2022-12-10T09:15:37;40.70;;;21.57;;
63975;SDS011;50167;47.958;21.780;2022-12-10T09:18:04;33.70;;;18.80;;
63975;SDS011;50167;47.958;21.780;2022-12-10T09:20:30;37.50;;;20.40;;
63975;SDS011;50167;47.958;21.780;2022-12-10T09:22:56;29.13;;;16.47;;
63975;SDS011;50167;47.958;21.780;2022-12-10T09:25:22;38.03;;;23.27;;
63975;SDS011;50167;47.958;21.780;2022-12-10T09:27:48;36.73;;;22.33;;
63975;SDS011;50167;47.958;21.780;2022-12-10T09:30:15;40.07;;;21.13;;
63975;SDS011;50167;47.958;21.780;2022-12-10T09:32:41;39.40;;;21.60;;
63975;SDS011;50167;47.958;21.780;2022-12-10T09:35:07;33.77;;;19.33;;
63975;SDS011;50167;47.958;21.780;2022-12-10T09:37:33;29.23;;;17.90;;
63975;SDS011;50167;47.958;21.780;2022-12-10T09:39:59;27.50;;;18.53;;
63975;SDS011;50167;47.958;21.780;2022-12-10T09:42:38;33.70;;;20.47;;
63975;SDS011;50167;47.958;21.780;2022-12-10T09:45:20;30.77;;;17.20;;
63975;SDS011;50167;47.958;21.780;2022-12-10T09:48:47;22.53;;;14.27;;
63975;SDS011;50167;47.958;21.780;2022-12-10T09:50:55;30.10;;;11.97;;
63975;SDS011;50167;47.958;21.780;2022-12-10T09:53:36;16.43;;;8.33;;
63975;SDS011;50167;47.958;21.780;2022-12-10T09:56:04;14.60;;;7.53;;
63975;SDS011;50167;47.958;21.780;2022-12-10T09:58:32;12.77;;;5.80;;
63975;SDS011;50167;47.958;21.780;2022-12-10T10:01:03;14.30;;;6.23;;
63975;SDS011;50167;47.958;21.780;2022-12-10T10:03:32;10.23;;;5.60;;
63975;SDS011;50167;47.958;21.780;2022-12-10T10:06:03;16.33;;;5.90;;
63975;SDS011;50167;47.958;21.780;2022-12-10T10:09:04;9.43;;;5.10;;
63975;SDS011;50167;47.958;21.780;2022-12-10T10:11:22;10.73;;;4.57;;
63975;SDS011;50167;47.958;21.780;2022-12-10T10:16:51;7.83;;;4.37;;
63975;SDS011;50167;47.958;21.780;2022-12-10T10:19:25;6.00;;;4.30;;
63975;SDS011;50167;47.958;21.780;2022-12-10T10:21:53;6.70;;;4.20;;
63975;SDS011;50167;47.958;21.780;2022-12-10T10:24:24;6.43;;;3.83;;
63975;SDS011;50167;47.958;21.780;2022-12-10T10:26:51;9.48;;;4.55;;
63975;SDS011;50167;47.958;21.780;2022-12-10T10:29:20;9.20;;;3.50;;
63975;SDS011;50167;47.958;21.780;2022-12-10T10:31:57;6.20;;;3.80;;
63975;SDS011;50167;47.958;21.780;2022-12-10T10:34:36;6.47;;;4.57;;
63975;SDS011;50167;47.958;21.780;2022-12-10T10:37:05;8.00;;;5.80;;
63975;SDS011;50167;47.958;21.780;2022-12-10T10:39:32;13.80;;;7.13;;
63975;SDS011;50167;47.958;21.780;2022-12-10T10:42:07;7.53;;;4.90;;
63975;SDS011;50167;47.958;21.780;2022-12-10T10:44:35;7.03;;;4.33;;
63975;SDS011;50167;47.958;21.780;2022-12-10T10:47:23;8.07;;;4.70;;
63975;SDS011;50167;47.958;21.780;2022-12-10T10:49:51;6.10;;;4.13;;
63975;SDS011;50167;47.958;21.780;2022-12-10T10:52:18;6.90;;;4.40;;
63975;SDS011;50167;47.958;21.780;2022-12-10T10:54:45;6.73;;;4.40;;
63975;SDS011;50167;47.958;21.780;2022-12-10T10:59:52;8.23;;;5.93;;
63975;SDS011;50167;47.958;21.780;2022-12-10T11:05:06;6.30;;;4.63;;
63975;SDS011;50167;47.958;21.780;2022-12-10T11:07:42;7.87;;;5.78;;
63975;SDS011;50167;47.958;21.780;2022-12-10T11:19:59;7.23;;;4.90;;
63975;SDS011;50167;47.958;21.780;2022-12-10T11:22:31;13.07;;;5.73;;
63975;SDS011;50167;47.958;21.780;2022-12-10T11:24:59;40.03;;;23.07;;
63975;SDS011;50167;47.958;21.780;2022-12-10T11:30:48;65.87;;;31.60;;
63975;SDS011;50167;47.958;21.780;2022-12-10T11:33:22;66.27;;;33.77;;
63975;SDS011;50167;47.958;21.780;2022-12-10T11:38:52;22.97;;;14.13;;
63975;SDS011;50167;47.958;21.780;2022-12-10T11:44:20;43.33;;;25.03;;
63975;SDS011;50167;47.958;21.780;2022-12-10T11:47:10;29.37;;;17.37;;
63975;SDS011;50167;47.958;21.780;2022-12-10T11:49:52;16.42;;;9.15;;
63975;SDS011;50167;47.958;21.780;2022-12-10T11:52:35;31.80;;;16.63;;
63975;SDS011;50167;47.958;21.780;2022-12-10T11:55:13;12.70;;;7.60;;
63975;SDS011;50167;47.958;21.780;2022-12-10T12:00:57;14.33;;;9.73;;
63975;SDS011;50167;47.958;21.780;2022-12-10T12:04:27;25.30;;;8.33;;
63975;SDS011;50167;47.958;21.780;2022-12-10T12:06:21;14.03;;;7.73;;
63975;SDS011;50167;47.958;21.780;2022-12-10T12:09:19;10.90;;;7.53;;
63975;SDS011;50167;47.958;21.780;2022-12-10T12:14:57;10.40;;;6.90;;
63975;SDS011;50167;47.958;21.780;2022-12-10T12:17:43;10.63;;;6.83;;
63975;SDS011;50167;47.958;21.780;2022-12-10T12:20:23;13.13;;;8.77;;
63975;SDS011;50167;47.958;21.780;2022-12-10T12:23:02;11.87;;;8.20;;
63975;SDS011;50167;47.958;21.780;2022-12-10T12:25:47;8.97;;;6.20;;
63975;SDS011;50167;47.958;21.780;2022-12-10T12:28:24;9.40;;;6.37;;
63975;SDS011;50167;47.958;21.780;2022-12-10T12:31:13;10.10;;;6.20;;
63975;SDS011;50167;47.958;21.780;2022-12-10T12:33:53;11.07;;;7.17;;
63975;SDS011;50167;47.958;21.780;2022-12-10T12:36:38;9.73;;;6.75;;
63975;SDS011;50167;47.958;21.780;2022-12-10T12:39:08;11.43;;;7.33;;
63975;SDS011;50167;47.958;21.780;2022-12-10T12:44:48;19.30;;;9.90;;
63975;SDS011;50167;47.958;21.780;2022-12-10T12:47:47;11.37;;;8.80;;
63975;SDS011;50167;47.958;21.780;2022-12-10T12:53:26;11.17;;;7.87;;
63975;SDS011;50167;47.958;21.780;2022-12-10T13:06:17;41.67;;;18.50;;
63975;SDS011;50167;47.958;21.780;2022-12-10T13:37:53;13.17;;;6.80;;
63975;SDS011;50167;47.958;21.780;2022-12-10T13:39:34;37.90;;;12.07;;
63975;SDS011;50167;47.958;21.780;2022-12-10T13:50:16;10.20;;;7.75;;
63975;SDS011;50167;47.958;21.780;2022-12-10T14:08:01;9.60;;;7.15;;
63975;SDS011;50167;47.958;21.780;2022-12-10T14:10:33;9.53;;;6.90;;
63975;SDS011;50167;47.958;21.780;2022-12-10T14:13:03;12.80;;;8.20;;
63975;SDS011;50167;47.958;21.780;2022-12-10T14:15:30;12.47;;;7.47;;
63975;SDS011;50167;47.958;21.780;2022-12-10T14:18:01;12.80;;;8.90;;
63975;SDS011;50167;47.958;21.780;2022-12-10T14:23:02;13.73;;;7.97;;
63975;SDS011;50167;47.958;21.780;2022-12-10T14:29:51;10.30;;;7.77;;
63975;SDS011;50167;47.958;21.780;2022-12-10T14:32:34;11.27;;;6.80;;
63975;SDS011;50167;47.958;21.780;2022-12-10T14:35:03;12.20;;;8.20;;
63975;SDS011;50167;47.958;21.780;2022-12-10T14:37:35;9.03;;;6.87;;
63975;SDS011;50167;47.958;21.780;2022-12-10T14:40:04;11.00;;;7.60;;
63975;SDS011;50167;47.958;21.780;2022-12-10T14:42:37;16.53;;;9.00;;
63975;SDS011;50167;47.958;21.780;2022-12-10T14:45:05;106.23;;;46.67;;
63975;SDS011;50167;47.958;21.780;2022-12-10T14:47:37;28.67;;;14.07;;
63975;SDS011;50167;47.958;21.780;2022-12-10T14:50:11;17.37;;;10.10;;
63975;SDS011;50167;47.958;21.780;2022-12-10T14:52:41;14.97;;;9.17;;
63975;SDS011;50167;47.958;21.780;2022-12-10T14:55:13;13.95;;;7.60;;
63975;SDS011;50167;47.958;21.780;2022-12-10T14:57:43;9.70;;;6.50;;
63975;SDS011;50167;47.958;21.780;2022-12-10T15:00:21;9.10;;;6.53;;
63975;SDS011;50167;47.958;21.780;2022-12-10T15:02:59;9.80;;;7.03;;
63975;SDS011;50167;47.958;21.780;2022-12-10T15:05:24;12.07;;;8.20;;
63975;SDS011;50167;47.958;21.780;2022-12-10T15:10:35;10.13;;;7.10;;
63975;SDS011;50167;47.958;21.780;2022-12-10T15:13:08;14.33;;;8.53;;
63975;SDS011;50167;47.958;21.780;2022-12-10T15:15:49;8.65;;;5.50;;
63975;SDS011;50167;47.958;21.780;2022-12-10T15:18:25;13.10;;;8.03;;
63975;SDS011;50167;47.958;21.780;2022-12-10T15:23:47;11.97;;;7.40;;
63975;SDS011;50167;47.958;21.780;2022-12-10T15:28:45;11.13;;;8.07;;
63975;SDS011;50167;47.958;21.780;2022-12-10T15:34:01;12.13;;;8.00;;
63975;SDS011;50167;47.958;21.780;2022-12-10T15:39:22;8.85;;;7.12;;
63975;SDS011;50167;47.958;21.780;2022-12-10T15:41:59;12.07;;;7.97;;
63975;SDS011;50167;47.958;21.780;2022-12-10T15:44:26;10.03;;;6.50;;
63975;SDS011;50167;47.958;21.780;2022-12-10T15:49:35;14.00;;;8.73;;
63975;SDS011;50167;47.958;21.780;2022-12-10T15:52:02;12.83;;;8.33;;
63975;SDS011;50167;47.958;21.780;2022-12-10T15:56:52;10.60;;;7.67;;
63975;SDS011;50167;47.958;21.780;2022-12-10T15:59:18;8.73;;;6.50;;
63975;SDS011;50167;47.958;21.780;2022-12-10T16:01:45;11.10;;;7.93;;
63975;SDS011;50167;47.958;21.780;2022-12-10T16:04:13;12.00;;;8.80;;
63975;SDS011;50167;47.958;21.780;2022-12-10T16:06:39;11.87;;;7.67;;
63975;SDS011;50167;47.958;21.780;2022-12-10T16:09:06;32.37;;;11.53;;
63975;SDS011;50167;47.958;21.780;2022-12-10T16:11:35;15.90;;;10.60;;
63975;SDS011;50167;47.958;21.780;2022-12-10T16:14:01;19.60;;;13.23;;
63975;SDS011;50167;47.958;21.780;2022-12-10T16:16:28;17.97;;;12.10;;
63975;SDS011;50167;47.958;21.780;2022-12-10T16:18:55;21.43;;;12.97;;
63975;SDS011;50167;47.958;21.780;2022-12-10T16:21:21;15.23;;;10.03;;
63975;SDS011;50167;47.958;21.780;2022-12-10T16:23:47;18.13;;;12.13;;
63975;SDS011;50167;47.958;21.780;2022-12-10T16:26:14;19.17;;;12.37;;
63975;SDS011;50167;47.958;21.780;2022-12-10T16:28:43;26.13;;;16.57;;
63975;SDS011;50167;47.958;21.780;2022-12-10T16:31:11;16.07;;;10.57;;
63975;SDS011;50167;47.958;21.780;2022-12-10T16:33:42;14.77;;;9.53;;
63975;SDS011;50167;47.958;21.780;2022-12-10T16:36:09;14.97;;;9.03;;
63975;SDS011;50167;47.958;21.780;2022-12-10T16:38:38;16.23;;;11.33;;
63975;SDS011;50167;47.958;21.780;2022-12-10T16:41:15;17.67;;;9.93;;
63975;SDS011;50167;47.958;21.780;2022-12-10T16:43:47;18.17;;;10.83;;
63975;SDS011;50167;47.958;21.780;2022-12-10T16:46:13;16.53;;;10.77;;
63975;SDS011;50167;47.958;21.780;2022-12-10T16:48:40;13.90;;;10.43;;
63975;SDS011;50167;47.958;21.780;2022-12-10T16:51:18;16.33;;;11.07;;
63975;SDS011;50167;47.958;21.780;2022-12-10T16:53:49;13.03;;;9.37;;
63975;SDS011;50167;47.958;21.780;2022-12-10T16:56:16;12.97;;;9.07;;
63975;SDS011;50167;47.958;21.780;2022-12-10T16:58:43;16.97;;;11.10;;
63975;SDS011;50167;47.958;21.780;2022-12-10T17:01:14;14.47;;;9.17;;
63975;SDS011;50167;47.958;21.780;2022-12-10T17:03:48;15.13;;;8.73;;
63975;SDS011;50167;47.958;21.780;2022-12-10T17:06:16;12.00;;;8.93;;
63975;SDS011;50167;47.958;21.780;2022-12-10T17:08:43;15.73;;;10.87;;
63975;SDS011;50167;47.958;21.780;2022-12-10T17:11:12;14.00;;;10.23;;
63975;SDS011;50167;47.958;21.780;2022-12-10T17:14:03;12.67;;;8.87;;